Abeytas, New Mexico
Current Conditions -  °F | °C
As of 9:15 AM on Sunday 25 Jan 2015 (Local Time) from KE80 Reporting Station
Clear Clear  
Wind Chill: 29°   Ceiling: Unl
Heat Index: 34°   Visibility: 10mi
Dew Point: 25°   Wind: 6mph
Humidity: 71%   Direction: 310°NW
Pressure: 30.33"   Gusts: NA
Location:  34.4828°N, 106.804°W
Report Text: KE80 251615Z AUTO 31005KT 10SM CLR 01/M04 A3033 RMK AO2 T00111037
Loading
Personal Weather Stations






























Interactive Weather Map New forecast layout! Learn more

10-Day Weather Forecast

Advertisements
Track Severe Weather on mobile